Centennial Airport
KAPA : now visible

Airfield :











YOU CAN JOIN US ON...

 
LOGIN :

Register | Disclaimer

   EN    FR    IT 

 









Legend :    VFR   Marginal VFR   IFR   Intensive IFR   Very Intensive IFR
Visi :
Ceiling :
>= 8 km
>= 3000ft
5 to 8 km
1000 to 3000 ft
1500m to 5 km
500 to 1000 ft
800 to 1500m
200 to 500 ft
< 800m
< 200 ft
Symbols :   Thunderstorms  Fog  Heavy snow  Heavy precipitations  Wind > 20 kt






- Airport Elevation : 5885 ft


KAPA - Centennial

CURRENT METAR :
  • 052353Z 02006KT 10SM FEW100 SCT220 07/M04 A2979 RMK AO2 SLP089 T00721044 10122 20072 56015

EXPIRED METARs :
  • 052253Z 08003KT 10SM FEW090 FEW180 SCT240 10/M04 A2980 RMK AO2 SLP086 T01001044
  • 052153Z 01005KT 10SM FEW090 FEW180 SCT240 10/M04 A2981 RMK AO2 SLP094 T01001039

TAF KAPA
Valid from the 06 at 00:00 until the 07 at 00:00 UTC


052335Z 0600/0624 VRB06KT P6SM SCT220
FM060200 21008KT P6SM FEW220
FM061200 26012KT P6SM SCT120 BKN200
FM061700 01014KT P6SM FEW070 SCT120 SCT170
FM062100 36015G25KT P6SM SCT060 BKN080
KZDV FIR / North America



MET'MAP, your aeronautical weather chart ! - Copyright ORBIFLY December 2007 - Disclaimer

ORBIFLY MET'MAP TEAM :

Programming & Development : Alexandra Zaïnal
Original concept : Baudouin d'Aumeries
Technical & hardware support : Manuel Goepfert
Assistance : Marc-Olivier Méhu




SOURCES & CREDITS :

   NOAA       Earth
Advisory